sensor_id;sensor_type;location;lat;lon;timestamp;P1;durP1;ratioP1;P2;durP2;ratioP2
45792;SDS011;31495;42.740;22.908;2024-02-15T00:00:14;17.52;;;10.85;;
45792;SDS011;31495;42.740;22.908;2024-02-15T00:02:15;19.02;;;10.82;;
45792;SDS011;31495;42.740;22.908;2024-02-15T00:03:15;16.88;;;11.02;;
45792;SDS011;31495;42.740;22.908;2024-02-15T00:04:14;19.63;;;11.73;;
45792;SDS011;31495;42.740;22.908;2024-02-15T00:05:15;19.27;;;11.77;;
45792;SDS011;31495;42.740;22.908;2024-02-15T00:06:15;22.65;;;11.52;;
45792;SDS011;31495;42.740;22.908;2024-02-15T00:07:14;19.05;;;10.93;;
45792;SDS011;31495;42.740;22.908;2024-02-15T00:08:13;19.90;;;11.88;;
45792;SDS011;31495;42.740;22.908;2024-02-15T00:09:14;23.70;;;12.18;;
45792;SDS011;31495;42.740;22.908;2024-02-15T00:10:13;22.20;;;12.43;;
45792;SDS011;31495;42.740;22.908;2024-02-15T00:11:14;19.13;;;12.15;;
45792;SDS011;31495;42.740;22.908;2024-02-15T00:12:13;21.63;;;12.10;;
45792;SDS011;31495;42.740;22.908;2024-02-15T00:13:13;41.22;;;19.05;;
45792;SDS011;31495;42.740;22.908;2024-02-15T00:14:13;51.47;;;23.05;;
45792;SDS011;31495;42.740;22.908;2024-02-15T00:15:12;46.15;;;22.98;;
45792;SDS011;31495;42.740;22.908;2024-02-15T00:16:13;37.05;;;17.85;;
45792;SDS011;31495;42.740;22.908;2024-02-15T00:17:13;34.97;;;16.52;;
45792;SDS011;31495;42.740;22.908;2024-02-15T00:18:13;30.48;;;15.85;;
45792;SDS011;31495;42.740;22.908;2024-02-15T00:19:13;28.33;;;15.63;;
45792;SDS011;31495;42.740;22.908;2024-02-15T00:20:16;23.92;;;12.55;;
45792;SDS011;31495;42.740;22.908;2024-02-15T00:21:16;27.02;;;13.93;;
45792;SDS011;31495;42.740;22.908;2024-02-15T00:22:16;25.23;;;12.93;;
45792;SDS011;31495;42.740;22.908;2024-02-15T00:23:16;25.83;;;14.40;;
45792;SDS011;31495;42.740;22.908;2024-02-15T00:24:16;22.90;;;12.75;;
45792;SDS011;31495;42.740;22.908;2024-02-15T00:25:16;19.00;;;10.55;;
45792;SDS011;31495;42.740;22.908;2024-02-15T00:26:15;23.05;;;12.70;;
45792;SDS011;31495;42.740;22.908;2024-02-15T00:27:15;23.67;;;11.65;;
45792;SDS011;31495;42.740;22.908;2024-02-15T00:28:15;17.30;;;10.90;;
45792;SDS011;31495;42.740;22.908;2024-02-15T00:29:14;17.20;;;9.65;;
45792;SDS011;31495;42.740;22.908;2024-02-15T00:30:14;17.55;;;9.43;;
45792;SDS011;31495;42.740;22.908;2024-02-15T00:32:15;19.35;;;11.38;;
45792;SDS011;31495;42.740;22.908;2024-02-15T00:33:15;21.67;;;12.63;;
45792;SDS011;31495;42.740;22.908;2024-02-15T00:34:15;17.45;;;10.88;;
45792;SDS011;31495;42.740;22.908;2024-02-15T00:35:16;13.73;;;9.02;;
45792;SDS011;31495;42.740;22.908;2024-02-15T00:36:15;15.07;;;9.05;;
45792;SDS011;31495;42.740;22.908;2024-02-15T00:37:14;17.90;;;10.32;;
45792;SDS011;31495;42.740;22.908;2024-02-15T00:38:14;18.33;;;11.93;;
45792;SDS011;31495;42.740;22.908;2024-02-15T00:39:13;16.55;;;9.77;;
45792;SDS011;31495;42.740;22.908;2024-02-15T00:40:12;15.10;;;9.50;;
45792;SDS011;31495;42.740;22.908;2024-02-15T00:41:12;16.67;;;10.25;;
45792;SDS011;31495;42.740;22.908;2024-02-15T00:42:11;18.00;;;11.20;;
45792;SDS011;31495;42.740;22.908;2024-02-15T00:43:12;23.63;;;11.65;;
45792;SDS011;31495;42.740;22.908;2024-02-15T00:44:11;19.30;;;11.52;;
45792;SDS011;31495;42.740;22.908;2024-02-15T00:45:10;20.88;;;13.23;;
45792;SDS011;31495;42.740;22.908;2024-02-15T00:46:10;25.95;;;14.48;;
45792;SDS011;31495;42.740;22.908;2024-02-15T00:47:10;20.30;;;12.50;;
45792;SDS011;31495;42.740;22.908;2024-02-15T00:48:11;19.95;;;12.43;;
45792;SDS011;31495;42.740;22.908;2024-02-15T00:49:10;20.00;;;12.50;;
45792;SDS011;31495;42.740;22.908;2024-02-15T00:50:10;21.00;;;13.00;;
45792;SDS011;31495;42.740;22.908;2024-02-15T00:51:09;19.27;;;11.30;;
45792;SDS011;31495;42.740;22.908;2024-02-15T00:52:08;19.20;;;10.80;;
45792;SDS011;31495;42.740;22.908;2024-02-15T00:53:08;17.92;;;10.40;;
45792;SDS011;31495;42.740;22.908;2024-02-15T00:54:07;18.52;;;11.52;;
45792;SDS011;31495;42.740;22.908;2024-02-15T00:55:07;16.08;;;10.05;;
45792;SDS011;31495;42.740;22.908;2024-02-15T00:56:06;20.08;;;11.95;;
45792;SDS011;31495;42.740;22.908;2024-02-15T00:57:06;17.88;;;10.70;;
45792;SDS011;31495;42.740;22.908;2024-02-15T00:58:05;16.38;;;10.70;;
45792;SDS011;31495;42.740;22.908;2024-02-15T00:59:05;18.88;;;11.25;;
45792;SDS011;31495;42.740;22.908;2024-02-15T01:00:05;17.88;;;10.55;;
45792;SDS011;31495;42.740;22.908;2024-02-15T01:01:06;20.50;;;11.30;;
45792;SDS011;31495;42.740;22.908;2024-02-15T01:02:06;19.65;;;10.90;;
45792;SDS011;31495;42.740;22.908;2024-02-15T01:03:05;19.73;;;11.50;;
45792;SDS011;31495;42.740;22.908;2024-02-15T01:04:05;19.90;;;10.98;;
45792;SDS011;31495;42.740;22.908;2024-02-15T01:05:04;19.35;;;10.73;;
45792;SDS011;31495;42.740;22.908;2024-02-15T01:06:04;17.88;;;10.70;;
45792;SDS011;31495;42.740;22.908;2024-02-15T01:07:04;20.33;;;11.45;;
45792;SDS011;31495;42.740;22.908;2024-02-15T01:08:03;18.90;;;10.68;;
45792;SDS011;31495;42.740;22.908;2024-02-15T01:09:05;22.67;;;13.32;;
45792;SDS011;31495;42.740;22.908;2024-02-15T01:10:04;18.75;;;11.38;;
45792;SDS011;31495;42.740;22.908;2024-02-15T01:11:05;18.23;;;11.38;;
45792;SDS011;31495;42.740;22.908;2024-02-15T01:12:05;18.63;;;10.75;;
45792;SDS011;31495;42.740;22.908;2024-02-15T01:13:05;21.58;;;10.82;;
45792;SDS011;31495;42.740;22.908;2024-02-15T01:14:04;20.88;;;11.50;;
45792;SDS011;31495;42.740;22.908;2024-02-15T01:15:05;19.50;;;10.57;;
45792;SDS011;31495;42.740;22.908;2024-02-15T01:16:06;21.15;;;12.07;;
45792;SDS011;31495;42.740;22.908;2024-02-15T01:17:06;20.23;;;12.55;;
45792;SDS011;31495;42.740;22.908;2024-02-15T01:18:06;21.45;;;11.65;;
45792;SDS011;31495;42.740;22.908;2024-02-15T01:19:05;23.05;;;13.13;;
45792;SDS011;31495;42.740;22.908;2024-02-15T01:20:05;20.48;;;12.10;;
45792;SDS011;31495;42.740;22.908;2024-02-15T01:21:06;20.25;;;11.38;;
45792;SDS011;31495;42.740;22.908;2024-02-15T01:22:06;25.27;;;11.25;;
45792;SDS011;31495;42.740;22.908;2024-02-15T01:23:05;15.48;;;9.32;;
45792;SDS011;31495;42.740;22.908;2024-02-15T01:24:06;17.95;;;9.38;;
45792;SDS011;31495;42.740;22.908;2024-02-15T01:25:06;16.23;;;9.98;;
45792;SDS011;31495;42.740;22.908;2024-02-15T01:26:06;15.25;;;9.60;;
45792;SDS011;31495;42.740;22.908;2024-02-15T01:27:05;22.15;;;10.55;;
45792;SDS011;31495;42.740;22.908;2024-02-15T01:28:07;17.67;;;10.00;;
45792;SDS011;31495;42.740;22.908;2024-02-15T01:29:06;21.10;;;11.55;;
45792;SDS011;31495;42.740;22.908;2024-02-15T01:30:10;21.35;;;10.35;;
45792;SDS011;31495;42.740;22.908;2024-02-15T01:31:13;16.10;;;10.95;;
45792;SDS011;31495;42.740;22.908;2024-02-15T01:32:15;15.45;;;10.05;;
45792;SDS011;31495;42.740;22.908;2024-02-15T01:33:15;19.42;;;11.85;;
45792;SDS011;31495;42.740;22.908;2024-02-15T01:34:16;17.67;;;10.35;;
45792;SDS011;31495;42.740;22.908;2024-02-15T01:35:16;18.92;;;11.50;;
45792;SDS011;31495;42.740;22.908;2024-02-15T01:36:16;19.15;;;11.38;;
45792;SDS011;31495;42.740;22.908;2024-02-15T01:37:16;17.90;;;10.68;;
45792;SDS011;31495;42.740;22.908;2024-02-15T01:38:16;18.95;;;10.27;;
45792;SDS011;31495;42.740;22.908;2024-02-15T01:39:16;18.70;;;12.00;;
45792;SDS011;31495;42.740;22.908;2024-02-15T01:40:16;19.67;;;10.70;;
45792;SDS011;31495;42.740;22.908;2024-02-15T01:41:16;16.95;;;10.95;;
45792;SDS011;31495;42.740;22.908;2024-02-15T01:42:15;20.35;;;11.15;;
45792;SDS011;31495;42.740;22.908;2024-02-15T01:43:14;19.70;;;11.55;;
45792;SDS011;31495;42.740;22.908;2024-02-15T01:44:14;20.38;;;11.70;;
45792;SDS011;31495;42.740;22.908;2024-02-15T01:45:14;19.58;;;10.75;;
45792;SDS011;31495;42.740;22.908;2024-02-15T01:46:14;16.45;;;10.68;;
45792;SDS011;31495;42.740;22.908;2024-02-15T01:47:16;21.38;;;11.70;;
45792;SDS011;31495;42.740;22.908;2024-02-15T01:48:18;21.33;;;10.57;;
45792;SDS011;31495;42.740;22.908;2024-02-15T01:49:18;17.92;;;9.80;;
45792;SDS011;31495;42.740;22.908;2024-02-15T01:50:18;16.90;;;9.98;;
45792;SDS011;31495;42.740;22.908;2024-02-15T01:51:19;19.55;;;11.13;;
45792;SDS011;31495;42.740;22.908;2024-02-15T01:52:18;19.85;;;12.18;;
45792;SDS011;31495;42.740;22.908;2024-02-15T01:53:18;18.50;;;11.05;;
45792;SDS011;31495;42.740;22.908;2024-02-15T01:54:17;20.27;;;10.88;;
45792;SDS011;31495;42.740;22.908;2024-02-15T01:55:19;19.27;;;10.35;;
45792;SDS011;31495;42.740;22.908;2024-02-15T01:56:18;19.52;;;11.60;;
45792;SDS011;31495;42.740;22.908;2024-02-15T01:57:19;19.02;;;10.95;;
45792;SDS011;31495;42.740;22.908;2024-02-15T01:58:20;18.35;;;11.10;;
45792;SDS011;31495;42.740;22.908;2024-02-15T01:59:19;18.45;;;11.18;;
45792;SDS011;31495;42.740;22.908;2024-02-15T02:00:22;18.65;;;10.82;;
45792;SDS011;31495;42.740;22.908;2024-02-15T02:01:23;18.45;;;10.75;;
45792;SDS011;31495;42.740;22.908;2024-02-15T02:02:23;19.88;;;10.05;;
45792;SDS011;31495;42.740;22.908;2024-02-15T02:03:28;19.63;;;11.32;;
45792;SDS011;31495;42.740;22.908;2024-02-15T02:05:31;14.53;;;10.07;;
45792;SDS011;31495;42.740;22.908;2024-02-15T02:06:30;20.70;;;11.07;;
45792;SDS011;31495;42.740;22.908;2024-02-15T02:07:30;17.67;;;10.35;;
45792;SDS011;31495;42.740;22.908;2024-02-15T02:08:29;16.55;;;10.32;;
45792;SDS011;31495;42.740;22.908;2024-02-15T02:09:29;19.92;;;10.68;;
45792;SDS011;31495;42.740;22.908;2024-02-15T02:10:29;17.05;;;10.70;;
45792;SDS011;31495;42.740;22.908;2024-02-15T02:11:31;17.63;;;10.60;;
45792;SDS011;31495;42.740;22.908;2024-02-15T02:12:32;16.70;;;11.13;;
45792;SDS011;31495;42.740;22.908;2024-02-15T02:13:32;18.00;;;10.52;;
45792;SDS011;31495;42.740;22.908;2024-02-15T02:14:32;19.77;;;9.70;;
45792;SDS011;31495;42.740;22.908;2024-02-15T02:15:31;19.77;;;10.10;;
45792;SDS011;31495;42.740;22.908;2024-02-15T02:16:32;18.75;;;11.10;;
45792;SDS011;31495;42.740;22.908;2024-02-15T02:17:31;18.55;;;11.00;;
45792;SDS011;31495;42.740;22.908;2024-02-15T02:18:31;17.90;;;11.30;;
45792;SDS011;31495;42.740;22.908;2024-02-15T02:19:30;19.33;;;10.80;;
45792;SDS011;31495;42.740;22.908;2024-02-15T02:20:30;20.60;;;11.00;;
45792;SDS011;31495;42.740;22.908;2024-02-15T02:21:30;17.73;;;10.35;;
45792;SDS011;31495;42.740;22.908;2024-02-15T02:22:30;16.95;;;10.68;;
45792;SDS011;31495;42.740;22.908;2024-02-15T02:23:32;26.25;;;11.93;;
45792;SDS011;31495;42.740;22.908;2024-02-15T02:24:32;19.92;;;11.13;;
45792;SDS011;31495;42.740;22.908;2024-02-15T02:25:36;16.88;;;11.23;;
45792;SDS011;31495;42.740;22.908;2024-02-15T02:26:35;17.92;;;10.98;;
45792;SDS011;31495;42.740;22.908;2024-02-15T02:27:35;16.65;;;10.73;;
45792;SDS011;31495;42.740;22.908;2024-02-15T02:28:35;19.13;;;11.13;;
45792;SDS011;31495;42.740;22.908;2024-02-15T02:29:35;18.08;;;10.93;;
45792;SDS011;31495;42.740;22.908;2024-02-15T02:30:34;17.65;;;9.85;;
45792;SDS011;31495;42.740;22.908;2024-02-15T02:31:34;18.98;;;10.30;;
45792;SDS011;31495;42.740;22.908;2024-02-15T02:32:34;22.20;;;12.90;;
45792;SDS011;31495;42.740;22.908;2024-02-15T02:33:35;16.02;;;9.95;;
45792;SDS011;31495;42.740;22.908;2024-02-15T02:34:34;18.55;;;10.80;;
45792;SDS011;31495;42.740;22.908;2024-02-15T02:35:35;16.73;;;9.98;;
45792;SDS011;31495;42.740;22.908;2024-02-15T02:36:34;16.35;;;10.48;;
45792;SDS011;31495;42.740;22.908;2024-02-15T02:37:35;17.55;;;9.93;;
45792;SDS011;31495;42.740;22.908;2024-02-15T02:38:36;19.48;;;11.98;;
45792;SDS011;31495;42.740;22.908;2024-02-15T02:39:37;23.15;;;12.57;;
45792;SDS011;31495;42.740;22.908;2024-02-15T02:40:36;19.85;;;11.23;;
45792;SDS011;31495;42.740;22.908;2024-02-15T02:41:36;20.58;;;11.80;;
45792;SDS011;31495;42.740;22.908;2024-02-15T02:42:36;20.55;;;11.85;;
45792;SDS011;31495;42.740;22.908;2024-02-15T02:43:36;27.27;;;14.60;;
45792;SDS011;31495;42.740;22.908;2024-02-15T02:44:36;27.35;;;14.85;;
45792;SDS011;31495;42.740;22.908;2024-02-15T02:45:36;26.65;;;15.15;;
45792;SDS011;31495;42.740;22.908;2024-02-15T02:46:36;43.33;;;18.08;;
45792;SDS011;31495;42.740;22.908;2024-02-15T02:47:35;31.85;;;16.08;;
45792;SDS011;31495;42.740;22.908;2024-02-15T02:48:36;35.50;;;17.42;;
45792;SDS011;31495;42.740;22.908;2024-02-15T02:49:35;25.48;;;13.38;;
45792;SDS011;31495;42.740;22.908;2024-02-15T02:50:36;18.23;;;11.10;;
45792;SDS011;31495;42.740;22.908;2024-02-15T02:51:35;20.05;;;11.20;;
45792;SDS011;31495;42.740;22.908;2024-02-15T02:52:35;19.00;;;10.60;;
45792;SDS011;31495;42.740;22.908;2024-02-15T02:53:38;23.25;;;12.35;;
45792;SDS011;31495;42.740;22.908;2024-02-15T02:54:37;62.15;;;28.02;;
45792;SDS011;31495;42.740;22.908;2024-02-15T02:55:37;55.47;;;24.17;;
45792;SDS011;31495;42.740;22.908;2024-02-15T02:56:37;56.70;;;23.65;;
45792;SDS011;31495;42.740;22.908;2024-02-15T02:57:37;62.75;;;26.27;;
45792;SDS011;31495;42.740;22.908;2024-02-15T02:58:37;78.05;;;33.03;;
45792;SDS011;31495;42.740;22.908;2024-02-15T02:59:41;64.38;;;26.60;;
45792;SDS011;31495;42.740;22.908;2024-02-15T03:00:41;50.53;;;21.45;;
45792;SDS011;31495;42.740;22.908;2024-02-15T03:01:42;66.10;;;26.57;;
45792;SDS011;31495;42.740;22.908;2024-02-15T03:02:41;55.80;;;24.38;;
45792;SDS011;31495;42.740;22.908;2024-02-15T03:03:42;55.30;;;23.60;;
45792;SDS011;31495;42.740;22.908;2024-02-15T03:04:43;47.78;;;20.88;;
45792;SDS011;31495;42.740;22.908;2024-02-15T03:05:43;31.67;;;16.50;;
45792;SDS011;31495;42.740;22.908;2024-02-15T03:06:42;22.92;;;12.18;;
45792;SDS011;31495;42.740;22.908;2024-02-15T03:07:43;26.90;;;13.70;;
45792;SDS011;31495;42.740;22.908;2024-02-15T03:08:44;27.75;;;13.85;;
45792;SDS011;31495;42.740;22.908;2024-02-15T03:09:43;25.08;;;12.55;;
45792;SDS011;31495;42.740;22.908;2024-02-15T03:10:43;25.35;;;12.90;;
45792;SDS011;31495;42.740;22.908;2024-02-15T03:11:42;23.65;;;12.60;;
45792;SDS011;31495;42.740;22.908;2024-02-15T03:12:42;24.00;;;12.18;;
45792;SDS011;31495;42.740;22.908;2024-02-15T03:13:48;26.17;;;13.98;;
45792;SDS011;31495;42.740;22.908;2024-02-15T03:14:47;30.27;;;15.10;;
45792;SDS011;31495;42.740;22.908;2024-02-15T03:15:47;31.92;;;16.20;;
45792;SDS011;31495;42.740;22.908;2024-02-15T03:16:47;27.23;;;13.60;;
45792;SDS011;31495;42.740;22.908;2024-02-15T03:17:46;30.42;;;15.75;;
45792;SDS011;31495;42.740;22.908;2024-02-15T03:18:46;29.17;;;14.75;;
45792;SDS011;31495;42.740;22.908;2024-02-15T03:19:48;30.20;;;15.25;;
45792;SDS011;31495;42.740;22.908;2024-02-15T03:20:48;25.52;;;12.68;;
45792;SDS011;31495;42.740;22.908;2024-02-15T03:21:48;25.65;;;13.82;;
45792;SDS011;31495;42.740;22.908;2024-02-15T03:23:51;25.25;;;13.27;;
45792;SDS011;31495;42.740;22.908;2024-02-15T03:24:51;33.38;;;15.73;;
45792;SDS011;31495;42.740;22.908;2024-02-15T03:25:51;26.35;;;14.82;;
45792;SDS011;31495;42.740;22.908;2024-02-15T03:26:50;24.58;;;13.93;;
45792;SDS011;31495;42.740;22.908;2024-02-15T03:28:52;18.35;;;10.75;;
45792;SDS011;31495;42.740;22.908;2024-02-15T03:29:51;23.48;;;12.57;;
45792;SDS011;31495;42.740;22.908;2024-02-15T03:30:52;22.27;;;14.55;;
45792;SDS011;31495;42.740;22.908;2024-02-15T03:31:51;24.95;;;14.35;;
45792;SDS011;31495;42.740;22.908;2024-02-15T03:32:53;23.40;;;14.77;;
45792;SDS011;31495;42.740;22.908;2024-02-15T03:33:52;30.50;;;14.35;;
45792;SDS011;31495;42.740;22.908;2024-02-15T03:34:53;22.17;;;14.02;;
45792;SDS011;31495;42.740;22.908;2024-02-15T03:35:54;20.58;;;10.85;;
45792;SDS011;31495;42.740;22.908;2024-02-15T03:36:58;23.02;;;11.60;;
45792;SDS011;31495;42.740;22.908;2024-02-15T03:37:57;21.23;;;11.95;;
45792;SDS011;31495;42.740;22.908;2024-02-15T03:38:58;22.67;;;12.45;;
45792;SDS011;31495;42.740;22.908;2024-02-15T03:39:57;21.70;;;12.88;;
45792;SDS011;31495;42.740;22.908;2024-02-15T03:40:57;24.30;;;12.05;;
45792;SDS011;31495;42.740;22.908;2024-02-15T03:41:56;22.60;;;11.80;;
45792;SDS011;31495;42.740;22.908;2024-02-15T03:42:58;20.70;;;11.02;;
45792;SDS011;31495;42.740;22.908;2024-02-15T03:43:58;21.52;;;10.80;;
45792;SDS011;31495;42.740;22.908;2024-02-15T03:45:59;17.17;;;10.35;;
45792;SDS011;31495;42.740;22.908;2024-02-15T03:46:59;17.48;;;9.82;;
45792;SDS011;31495;42.740;22.908;2024-02-15T03:47:58;18.25;;;10.98;;
45792;SDS011;31495;42.740;22.908;2024-02-15T03:48:58;22.05;;;11.27;;
45792;SDS011;31495;42.740;22.908;2024-02-15T03:49:58;23.83;;;12.35;;
45792;SDS011;31495;42.740;22.908;2024-02-15T03:50:59;23.83;;;12.60;;
45792;SDS011;31495;42.740;22.908;2024-02-15T03:51:58;21.30;;;12.20;;
45792;SDS011;31495;42.740;22.908;2024-02-15T03:52:58;23.15;;;14.50;;
45792;SDS011;31495;42.740;22.908;2024-02-15T03:53:59;23.00;;;13.75;;
45792;SDS011;31495;42.740;22.908;2024-02-15T03:54:59;25.15;;;14.05;;
45792;SDS011;31495;42.740;22.908;2024-02-15T03:55:59;27.90;;;14.93;;
45792;SDS011;31495;42.740;22.908;2024-02-15T03:56:59;27.70;;;14.63;;
45792;SDS011;31495;42.740;22.908;2024-02-15T03:57:59;25.25;;;14.32;;
45792;SDS011;31495;42.740;22.908;2024-02-15T03:58:59;22.35;;;13.15;;
45792;SDS011;31495;42.740;22.908;2024-02-15T03:59:59;26.75;;;15.50;;
45792;SDS011;31495;42.740;22.908;2024-02-15T04:00:59;29.33;;;14.82;;
45792;SDS011;31495;42.740;22.908;2024-02-15T04:01:59;23.48;;;13.35;;
45792;SDS011;31495;42.740;22.908;2024-02-15T04:02:58;22.95;;;13.18;;
45792;SDS011;31495;42.740;22.908;2024-02-15T04:05:01;26.63;;;12.88;;
45792;SDS011;31495;42.740;22.908;2024-02-15T04:06:02;25.90;;;15.07;;
45792;SDS011;31495;42.740;22.908;2024-02-15T04:07:02;27.08;;;15.52;;
45792;SDS011;31495;42.740;22.908;2024-02-15T04:08:02;24.92;;;14.60;;
45792;SDS011;31495;42.740;22.908;2024-02-15T04:09:02;32.03;;;16.58;;
45792;SDS011;31495;42.740;22.908;2024-02-15T04:10:01;30.67;;;15.98;;
45792;SDS011;31495;42.740;22.908;2024-02-15T04:11:01;25.70;;;15.55;;
45792;SDS011;31495;42.740;22.908;2024-02-15T04:12:01;32.28;;;17.38;;
45792;SDS011;31495;42.740;22.908;2024-02-15T04:13:01;29.10;;;16.05;;
45792;SDS011;31495;42.740;22.908;2024-02-15T04:14:00;29.70;;;16.15;;
45792;SDS011;31495;42.740;22.908;2024-02-15T04:15:00;24.50;;;13.93;;
45792;SDS011;31495;42.740;22.908;2024-02-15T04:16:04;26.35;;;15.32;;
45792;SDS011;31495;42.740;22.908;2024-02-15T04:17:04;22.38;;;14.55;;
45792;SDS011;31495;42.740;22.908;2024-02-15T04:18:04;24.10;;;13.73;;
45792;SDS011;31495;42.740;22.908;2024-02-15T04:19:04;30.00;;;14.98;;
45792;SDS011;31495;42.740;22.908;2024-02-15T04:20:04;24.75;;;15.82;;
45792;SDS011;31495;42.740;22.908;2024-02-15T04:21:05;32.40;;;15.90;;
45792;SDS011;31495;42.740;22.908;2024-02-15T04:22:06;29.90;;;17.25;;
45792;SDS011;31495;42.740;22.908;2024-02-15T04:23:07;43.33;;;21.20;;
45792;SDS011;31495;42.740;22.908;2024-02-15T04:24:06;39.67;;;21.60;;
45792;SDS011;31495;42.740;22.908;2024-02-15T04:25:06;48.05;;;24.40;;
45792;SDS011;31495;42.740;22.908;2024-02-15T04:26:08;41.65;;;22.83;;
45792;SDS011;31495;42.740;22.908;2024-02-15T04:27:08;39.25;;;20.90;;
45792;SDS011;31495;42.740;22.908;2024-02-15T04:28:11;32.83;;;17.10;;
45792;SDS011;31495;42.740;22.908;2024-02-15T04:29:11;27.67;;;14.10;;
45792;SDS011;31495;42.740;22.908;2024-02-15T04:30:11;26.25;;;13.07;;
45792;SDS011;31495;42.740;22.908;2024-02-15T04:31:11;46.75;;;22.35;;
45792;SDS011;31495;42.740;22.908;2024-02-15T04:32:11;72.30;;;34.25;;
45792;SDS011;31495;42.740;22.908;2024-02-15T04:33:12;31.05;;;17.17;;
45792;SDS011;31495;42.740;22.908;2024-02-15T04:34:17;24.15;;;13.95;;
45792;SDS011;31495;42.740;22.908;2024-02-15T04:35:17;23.50;;;11.57;;
45792;SDS011;31495;42.740;22.908;2024-02-15T04:36:16;18.50;;;10.40;;
45792;SDS011;31495;42.740;22.908;2024-02-15T04:37:22;16.60;;;9.43;;
45792;SDS011;31495;42.740;22.908;2024-02-15T04:38:22;16.95;;;9.55;;
45792;SDS011;31495;42.740;22.908;2024-02-15T04:39:22;16.77;;;9.63;;
45792;SDS011;31495;42.740;22.908;2024-02-15T04:40:26;22.33;;;12.57;;
45792;SDS011;31495;42.740;22.908;2024-02-15T04:41:25;17.27;;;10.35;;
45792;SDS011;31495;42.740;22.908;2024-02-15T04:42:25;14.55;;;9.10;;
45792;SDS011;31495;42.740;22.908;2024-02-15T04:43:26;18.88;;;10.00;;
45792;SDS011;31495;42.740;22.908;2024-02-15T04:44:25;17.10;;;9.02;;
45792;SDS011;31495;42.740;22.908;2024-02-15T04:45:26;16.63;;;10.32;;
45792;SDS011;31495;42.740;22.908;2024-02-15T04:46:26;20.75;;;10.73;;
45792;SDS011;31495;42.740;22.908;2024-02-15T04:47:25;16.52;;;8.95;;
45792;SDS011;31495;42.740;22.908;2024-02-15T04:48:25;17.80;;;9.93;;
45792;SDS011;31495;42.740;22.908;2024-02-15T04:49:24;17.58;;;10.18;;
45792;SDS011;31495;42.740;22.908;2024-02-15T04:50:25;17.05;;;10.02;;
45792;SDS011;31495;42.740;22.908;2024-02-15T04:51:25;20.17;;;10.80;;
45792;SDS011;31495;42.740;22.908;2024-02-15T04:52:27;15.95;;;9.90;;
45792;SDS011;31495;42.740;22.908;2024-02-15T04:53:26;21.05;;;12.10;;
45792;SDS011;31495;42.740;22.908;2024-02-15T04:54:29;17.90;;;10.23;;
45792;SDS011;31495;42.740;22.908;2024-02-15T04:55:29;20.23;;;11.32;;
45792;SDS011;31495;42.740;22.908;2024-02-15T04:56:30;19.55;;;10.68;;
45792;SDS011;31495;42.740;22.908;2024-02-15T04:57:32;16.65;;;10.82;;
45792;SDS011;31495;42.740;22.908;2024-02-15T04:58:33;15.95;;;9.38;;
45792;SDS011;31495;42.740;22.908;2024-02-15T04:59:35;17.30;;;10.50;;
45792;SDS011;31495;42.740;22.908;2024-02-15T05:00:35;16.88;;;10.27;;
45792;SDS011;31495;42.740;22.908;2024-02-15T05:01:35;17.85;;;9.43;;
45792;SDS011;31495;42.740;22.908;2024-02-15T05:02:35;17.58;;;9.65;;
45792;SDS011;31495;42.740;22.908;2024-02-15T05:03:39;19.80;;;11.55;;
45792;SDS011;31495;42.740;22.908;2024-02-15T05:04:38;25.55;;;16.17;;
45792;SDS011;31495;42.740;22.908;2024-02-15T05:05:41;28.75;;;17.92;;
45792;SDS011;31495;42.740;22.908;2024-02-15T05:06:41;21.92;;;11.20;;
45792;SDS011;31495;42.740;22.908;2024-02-15T05:07:41;18.38;;;9.00;;
45792;SDS011;31495;42.740;22.908;2024-02-15T05:08:42;17.30;;;9.15;;
45792;SDS011;31495;42.740;22.908;2024-02-15T05:09:41;20.73;;;10.40;;
45792;SDS011;31495;42.740;22.908;2024-02-15T05:10:40;18.52;;;10.50;;
45792;SDS011;31495;42.740;22.908;2024-02-15T05:11:40;21.85;;;10.52;;
45792;SDS011;31495;42.740;22.908;2024-02-15T05:12:47;16.08;;;9.48;;
45792;SDS011;31495;42.740;22.908;2024-02-15T05:13:47;15.77;;;8.65;;
45792;SDS011;31495;42.740;22.908;2024-02-15T05:14:46;16.10;;;8.80;;
45792;SDS011;31495;42.740;22.908;2024-02-15T05:15:47;15.45;;;8.40;;
45792;SDS011;31495;42.740;22.908;2024-02-15T05:16:47;18.00;;;9.05;;
45792;SDS011;31495;42.740;22.908;2024-02-15T05:17:47;15.70;;;9.18;;
45792;SDS011;31495;42.740;22.908;2024-02-15T05:18:47;15.02;;;8.82;;
45792;SDS011;31495;42.740;22.908;2024-02-15T05:19:47;17.33;;;9.48;;
45792;SDS011;31495;42.740;22.908;2024-02-15T05:20:47;16.00;;;10.27;;
45792;SDS011;31495;42.740;22.908;2024-02-15T05:21:46;21.95;;;10.23;;
45792;SDS011;31495;42.740;22.908;2024-02-15T05:22:46;18.05;;;10.32;;
45792;SDS011;31495;42.740;22.908;2024-02-15T05:23:46;19.63;;;10.88;;
45792;SDS011;31495;42.740;22.908;2024-02-15T05:24:45;17.50;;;9.70;;
45792;SDS011;31495;42.740;22.908;2024-02-15T05:25:45;22.08;;;12.93;;
45792;SDS011;31495;42.740;22.908;2024-02-15T05:26:45;27.00;;;13.57;;
45792;SDS011;31495;42.740;22.908;2024-02-15T05:27:46;20.30;;;11.30;;
45792;SDS011;31495;42.740;22.908;2024-02-15T05:28:46;18.30;;;10.48;;
45792;SDS011;31495;42.740;22.908;2024-02-15T05:29:46;26.98;;;11.52;;
45792;SDS011;31495;42.740;22.908;2024-02-15T05:30:46;19.42;;;10.63;;
45792;SDS011;31495;42.740;22.908;2024-02-15T05:31:48;15.55;;;9.57;;
45792;SDS011;31495;42.740;22.908;2024-02-15T05:32:50;17.02;;;8.90;;
45792;SDS011;31495;42.740;22.908;2024-02-15T05:33:52;18.88;;;9.05;;
45792;SDS011;31495;42.740;22.908;2024-02-15T05:34:53;20.10;;;9.48;;
45792;SDS011;31495;42.740;22.908;2024-02-15T05:35:54;14.80;;;8.50;;
45792;SDS011;31495;42.740;22.908;2024-02-15T05:36:54;17.80;;;9.63;;
45792;SDS011;31495;42.740;22.908;2024-02-15T05:37:54;22.95;;;11.98;;
45792;SDS011;31495;42.740;22.908;2024-02-15T05:38:53;15.70;;;9.18;;
45792;SDS011;31495;42.740;22.908;2024-02-15T05:40:55;15.05;;;8.85;;
45792;SDS011;31495;42.740;22.908;2024-02-15T05:41:55;19.60;;;9.27;;
45792;SDS011;31495;42.740;22.908;2024-02-15T05:43:00;14.68;;;8.48;;
45792;SDS011;31495;42.740;22.908;2024-02-15T05:44:01;12.52;;;7.15;;
45792;SDS011;31495;42.740;22.908;2024-02-15T05:46:22;19.73;;;11.18;;
45792;SDS011;31495;42.740;22.908;2024-02-15T05:47:22;16.23;;;8.93;;
45792;SDS011;31495;42.740;22.908;2024-02-15T05:48:23;14.57;;;8.90;;
45792;SDS011;31495;42.740;22.908;2024-02-15T05:49:22;17.70;;;8.52;;
45792;SDS011;31495;42.740;22.908;2024-02-15T05:50:23;16.65;;;9.77;;
45792;SDS011;31495;42.740;22.908;2024-02-15T05:51:23;18.08;;;8.65;;
45792;SDS011;31495;42.740;22.908;2024-02-15T05:52:22;18.02;;;10.13;;
45792;SDS011;31495;42.740;22.908;2024-02-15T05:53:25;13.65;;;7.70;;
45792;SDS011;31495;42.740;22.908;2024-02-15T05:54:24;15.85;;;8.65;;
45792;SDS011;31495;42.740;22.908;2024-02-15T05:55:24;16.55;;;7.70;;
45792;SDS011;31495;42.740;22.908;2024-02-15T05:56:25;12.45;;;6.40;;
45792;SDS011;31495;42.740;22.908;2024-02-15T05:57:25;14.75;;;9.23;;